sensor_id;sensor_type;location;lat;lon;timestamp;P1;durP1;ratioP1;P2;durP2;ratioP2
944;SDS011;459;48.676;9.034;2023-06-10T00:02:23;7.20;;;6.70;;
944;SDS011;459;48.676;9.034;2023-06-10T00:04:48;8.10;;;7.37;;
944;SDS011;459;48.676;9.034;2023-06-10T00:07:14;7.07;;;6.57;;
944;SDS011;459;48.676;9.034;2023-06-10T00:09:40;7.23;;;6.53;;
944;SDS011;459;48.676;9.034;2023-06-10T00:12:05;7.57;;;6.90;;
944;SDS011;459;48.676;9.034;2023-06-10T00:14:31;8.07;;;7.43;;
944;SDS011;459;48.676;9.034;2023-06-10T00:16:56;7.30;;;6.70;;
944;SDS011;459;48.676;9.034;2023-06-10T00:19:22;7.83;;;7.13;;
944;SDS011;459;48.676;9.034;2023-06-10T00:21:50;8.27;;;7.60;;
944;SDS011;459;48.676;9.034;2023-06-10T00:24:16;7.40;;;6.80;;
944;SDS011;459;48.676;9.034;2023-06-10T00:26:41;8.07;;;7.37;;
944;SDS011;459;48.676;9.034;2023-06-10T00:29:06;7.93;;;7.33;;
944;SDS011;459;48.676;9.034;2023-06-10T00:31:33;8.20;;;7.50;;
944;SDS011;459;48.676;9.034;2023-06-10T00:33:58;7.30;;;6.70;;
944;SDS011;459;48.676;9.034;2023-06-10T00:36:23;7.90;;;7.20;;
944;SDS011;459;48.676;9.034;2023-06-10T00:38:49;8.70;;;7.90;;
944;SDS011;459;48.676;9.034;2023-06-10T00:41:14;7.97;;;7.30;;
944;SDS011;459;48.676;9.034;2023-06-10T00:43:39;7.23;;;6.60;;
944;SDS011;459;48.676;9.034;2023-06-10T00:46:04;8.30;;;7.60;;
944;SDS011;459;48.676;9.034;2023-06-10T00:48:31;8.70;;;7.90;;
944;SDS011;459;48.676;9.034;2023-06-10T00:50:57;7.87;;;7.17;;
944;SDS011;459;48.676;9.034;2023-06-10T00:53:23;8.33;;;7.57;;
944;SDS011;459;48.676;9.034;2023-06-10T00:55:48;8.23;;;7.27;;
944;SDS011;459;48.676;9.034;2023-06-10T00:58:14;8.27;;;7.50;;
944;SDS011;459;48.676;9.034;2023-06-10T01:00:40;8.10;;;7.50;;
944;SDS011;459;48.676;9.034;2023-06-10T01:03:05;8.17;;;7.47;;
944;SDS011;459;48.676;9.034;2023-06-10T01:05:32;7.93;;;7.33;;
944;SDS011;459;48.676;9.034;2023-06-10T01:08:03;8.40;;;7.70;;
944;SDS011;459;48.676;9.034;2023-06-10T01:10:50;9.47;;;8.57;;
944;SDS011;459;48.676;9.034;2023-06-10T01:13:16;8.73;;;7.30;;
944;SDS011;459;48.676;9.034;2023-06-10T01:15:43;7.87;;;7.13;;
944;SDS011;459;48.676;9.034;2023-06-10T01:18:09;8.03;;;7.33;;
944;SDS011;459;48.676;9.034;2023-06-10T01:20:35;7.70;;;7.10;;
944;SDS011;459;48.676;9.034;2023-06-10T01:23:02;8.20;;;7.40;;
944;SDS011;459;48.676;9.034;2023-06-10T01:25:28;7.60;;;6.90;;
944;SDS011;459;48.676;9.034;2023-06-10T01:27:54;7.70;;;6.97;;
944;SDS011;459;48.676;9.034;2023-06-10T01:30:21;8.87;;;8.17;;
944;SDS011;459;48.676;9.034;2023-06-10T01:32:49;7.70;;;7.10;;
944;SDS011;459;48.676;9.034;2023-06-10T01:35:16;8.97;;;8.27;;
944;SDS011;459;48.676;9.034;2023-06-10T01:37:43;9.97;;;8.97;;
944;SDS011;459;48.676;9.034;2023-06-10T01:40:10;9.10;;;8.20;;
944;SDS011;459;48.676;9.034;2023-06-10T01:42:36;8.53;;;7.83;;
944;SDS011;459;48.676;9.034;2023-06-10T01:45:01;9.03;;;8.00;;
944;SDS011;459;48.676;9.034;2023-06-10T01:47:27;9.00;;;8.20;;
944;SDS011;459;48.676;9.034;2023-06-10T01:49:52;8.57;;;7.80;;
944;SDS011;459;48.676;9.034;2023-06-10T01:52:17;8.10;;;7.40;;
944;SDS011;459;48.676;9.034;2023-06-10T01:54:42;8.77;;;8.07;;
944;SDS011;459;48.676;9.034;2023-06-10T01:57:08;8.10;;;7.40;;
944;SDS011;459;48.676;9.034;2023-06-10T01:59:33;8.43;;;7.73;;
944;SDS011;459;48.676;9.034;2023-06-10T02:01:58;9.30;;;8.50;;
944;SDS011;459;48.676;9.034;2023-06-10T02:04:23;12.00;;;8.00;;
944;SDS011;459;48.676;9.034;2023-06-10T02:06:49;9.37;;;8.47;;
944;SDS011;459;48.676;9.034;2023-06-10T02:09:15;8.80;;;7.90;;
944;SDS011;459;48.676;9.034;2023-06-10T02:11:40;8.53;;;7.83;;
944;SDS011;459;48.676;9.034;2023-06-10T02:14:05;8.97;;;8.17;;
944;SDS011;459;48.676;9.034;2023-06-10T02:16:30;9.20;;;8.40;;
944;SDS011;459;48.676;9.034;2023-06-10T02:18:56;9.37;;;8.57;;
944;SDS011;459;48.676;9.034;2023-06-10T02:21:21;9.13;;;8.37;;
944;SDS011;459;48.676;9.034;2023-06-10T02:23:46;9.30;;;8.50;;
944;SDS011;459;48.676;9.034;2023-06-10T02:26:12;10.60;;;9.70;;
944;SDS011;459;48.676;9.034;2023-06-10T02:28:37;11.03;;;10.03;;
944;SDS011;459;48.676;9.034;2023-06-10T02:31:02;10.37;;;9.13;;
944;SDS011;459;48.676;9.034;2023-06-10T02:33:27;10.70;;;9.80;;
944;SDS011;459;48.676;9.034;2023-06-10T02:35:53;9.57;;;8.87;;
944;SDS011;459;48.676;9.034;2023-06-10T02:38:18;10.50;;;9.60;;
944;SDS011;459;48.676;9.034;2023-06-10T02:40:44;9.97;;;9.27;;
944;SDS011;459;48.676;9.034;2023-06-10T02:43:09;9.90;;;9.00;;
944;SDS011;459;48.676;9.034;2023-06-10T02:45:34;10.07;;;9.17;;
944;SDS011;459;48.676;9.034;2023-06-10T02:48:00;10.77;;;9.90;;
944;SDS011;459;48.676;9.034;2023-06-10T02:50:26;9.80;;;9.07;;
944;SDS011;459;48.676;9.034;2023-06-10T02:52:51;9.03;;;8.23;;
944;SDS011;459;48.676;9.034;2023-06-10T02:55:16;9.37;;;8.57;;
944;SDS011;459;48.676;9.034;2023-06-10T02:57:43;8.43;;;7.83;;
944;SDS011;459;48.676;9.034;2023-06-10T03:00:08;9.00;;;8.17;;
944;SDS011;459;48.676;9.034;2023-06-10T03:02:39;9.53;;;8.63;;
944;SDS011;459;48.676;9.034;2023-06-10T03:05:04;10.03;;;9.23;;
944;SDS011;459;48.676;9.034;2023-06-10T03:07:30;10.13;;;9.20;;
944;SDS011;459;48.676;9.034;2023-06-10T03:09:56;9.10;;;8.27;;
944;SDS011;459;48.676;9.034;2023-06-10T03:12:22;9.93;;;9.10;;
944;SDS011;459;48.676;9.034;2023-06-10T03:14:47;9.93;;;9.03;;
944;SDS011;459;48.676;9.034;2023-06-10T03:17:12;9.07;;;8.37;;
944;SDS011;459;48.676;9.034;2023-06-10T03:19:38;9.33;;;8.63;;
944;SDS011;459;48.676;9.034;2023-06-10T03:22:12;9.50;;;8.70;;
944;SDS011;459;48.676;9.034;2023-06-10T03:24:37;10.27;;;9.27;;
944;SDS011;459;48.676;9.034;2023-06-10T03:27:06;9.43;;;8.63;;
944;SDS011;459;48.676;9.034;2023-06-10T03:29:33;9.30;;;8.50;;
944;SDS011;459;48.676;9.034;2023-06-10T03:31:58;10.57;;;9.70;;
944;SDS011;459;48.676;9.034;2023-06-10T03:34:24;9.53;;;8.73;;
944;SDS011;459;48.676;9.034;2023-06-10T03:36:49;8.97;;;8.17;;
944;SDS011;459;48.676;9.034;2023-06-10T03:39:15;9.10;;;8.40;;
944;SDS011;459;48.676;9.034;2023-06-10T03:41:40;9.27;;;8.43;;
944;SDS011;459;48.676;9.034;2023-06-10T03:44:06;8.70;;;8.00;;
944;SDS011;459;48.676;9.034;2023-06-10T03:46:32;9.60;;;8.80;;
944;SDS011;459;48.676;9.034;2023-06-10T03:48:57;8.93;;;8.03;;
944;SDS011;459;48.676;9.034;2023-06-10T03:51:25;10.50;;;9.70;;
944;SDS011;459;48.676;9.034;2023-06-10T03:53:50;10.70;;;9.60;;
944;SDS011;459;48.676;9.034;2023-06-10T03:56:15;10.03;;;9.23;;
944;SDS011;459;48.676;9.034;2023-06-10T03:58:41;9.60;;;8.80;;
944;SDS011;459;48.676;9.034;2023-06-10T04:01:08;9.10;;;8.40;;
944;SDS011;459;48.676;9.034;2023-06-10T04:03:34;9.57;;;8.77;;
944;SDS011;459;48.676;9.034;2023-06-10T04:06:00;10.80;;;9.90;;
944;SDS011;459;48.676;9.034;2023-06-10T04:08:26;9.87;;;9.07;;
944;SDS011;459;48.676;9.034;2023-06-10T04:10:52;9.63;;;8.83;;
944;SDS011;459;48.676;9.034;2023-06-10T04:13:17;9.03;;;8.33;;
944;SDS011;459;48.676;9.034;2023-06-10T04:15:43;11.20;;;10.27;;
944;SDS011;459;48.676;9.034;2023-06-10T04:18:08;9.50;;;8.70;;
944;SDS011;459;48.676;9.034;2023-06-10T04:20:33;9.67;;;8.97;;
944;SDS011;459;48.676;9.034;2023-06-10T04:22:58;10.17;;;9.27;;
944;SDS011;459;48.676;9.034;2023-06-10T04:25:24;9.17;;;8.47;;
944;SDS011;459;48.676;9.034;2023-06-10T04:27:51;10.23;;;9.00;;
944;SDS011;459;48.676;9.034;2023-06-10T04:30:16;9.33;;;8.63;;
944;SDS011;459;48.676;9.034;2023-06-10T04:32:41;9.97;;;9.17;;
944;SDS011;459;48.676;9.034;2023-06-10T04:35:07;9.37;;;8.60;;
944;SDS011;459;48.676;9.034;2023-06-10T04:37:32;8.97;;;8.20;;
944;SDS011;459;48.676;9.034;2023-06-10T04:39:58;10.30;;;8.90;;
944;SDS011;459;48.676;9.034;2023-06-10T04:42:24;9.53;;;8.77;;
944;SDS011;459;48.676;9.034;2023-06-10T04:44:49;10.40;;;9.50;;
944;SDS011;459;48.676;9.034;2023-06-10T04:47:15;8.73;;;8.03;;
944;SDS011;459;48.676;9.034;2023-06-10T04:49:42;9.23;;;8.53;;
944;SDS011;459;48.676;9.034;2023-06-10T04:52:07;9.43;;;8.30;;
944;SDS011;459;48.676;9.034;2023-06-10T04:54:32;9.47;;;8.77;;
944;SDS011;459;48.676;9.034;2023-06-10T04:56:58;9.80;;;9.00;;
944;SDS011;459;48.676;9.034;2023-06-10T04:59:23;9.77;;;8.97;;
944;SDS011;459;48.676;9.034;2023-06-10T05:01:48;10.17;;;9.37;;
944;SDS011;459;48.676;9.034;2023-06-10T05:04:16;10.07;;;9.27;;
944;SDS011;459;48.676;9.034;2023-06-10T05:06:42;10.47;;;9.57;;
944;SDS011;459;48.676;9.034;2023-06-10T05:09:07;10.10;;;9.13;;
944;SDS011;459;48.676;9.034;2023-06-10T05:11:34;9.30;;;8.53;;
944;SDS011;459;48.676;9.034;2023-06-10T05:13:59;9.77;;;8.87;;
944;SDS011;459;48.676;9.034;2023-06-10T05:16:26;10.33;;;9.43;;
944;SDS011;459;48.676;9.034;2023-06-10T05:18:51;10.23;;;9.23;;
944;SDS011;459;48.676;9.034;2023-06-10T05:21:17;10.30;;;9.40;;
944;SDS011;459;48.676;9.034;2023-06-10T05:23:42;9.80;;;9.00;;
944;SDS011;459;48.676;9.034;2023-06-10T05:26:07;9.50;;;8.50;;
944;SDS011;459;48.676;9.034;2023-06-10T05:28:32;7.23;;;6.73;;
944;SDS011;459;48.676;9.034;2023-06-10T05:30:58;7.77;;;7.07;;
944;SDS011;459;48.676;9.034;2023-06-10T05:33:23;7.40;;;6.80;;
944;SDS011;459;48.676;9.034;2023-06-10T05:35:48;7.40;;;6.80;;
944;SDS011;459;48.676;9.034;2023-06-10T05:38:14;6.10;;;5.60;;
944;SDS011;459;48.676;9.034;2023-06-10T05:40:39;6.90;;;6.30;;
944;SDS011;459;48.676;9.034;2023-06-10T05:43:05;6.43;;;5.87;;
944;SDS011;459;48.676;9.034;2023-06-10T05:45:32;6.80;;;6.20;;
944;SDS011;459;48.676;9.034;2023-06-10T05:47:57;6.70;;;6.20;;
944;SDS011;459;48.676;9.034;2023-06-10T05:50:23;6.50;;;5.90;;
944;SDS011;459;48.676;9.034;2023-06-10T05:52:49;6.90;;;6.30;;
944;SDS011;459;48.676;9.034;2023-06-10T05:55:14;6.63;;;5.63;;
944;SDS011;459;48.676;9.034;2023-06-10T05:57:41;6.77;;;6.20;;
944;SDS011;459;48.676;9.034;2023-06-10T06:00:06;6.63;;;6.07;;
944;SDS011;459;48.676;9.034;2023-06-10T06:02:32;7.40;;;6.70;;
944;SDS011;459;48.676;9.034;2023-06-10T06:04:57;6.23;;;5.50;;
944;SDS011;459;48.676;9.034;2023-06-10T06:07:23;7.33;;;6.63;;
944;SDS011;459;48.676;9.034;2023-06-10T06:09:48;6.80;;;6.20;;
944;SDS011;459;48.676;9.034;2023-06-10T06:12:13;6.60;;;5.90;;
944;SDS011;459;48.676;9.034;2023-06-10T06:14:38;6.70;;;6.10;;
944;SDS011;459;48.676;9.034;2023-06-10T06:17:05;8.40;;;6.00;;
944;SDS011;459;48.676;9.034;2023-06-10T06:19:30;7.20;;;6.60;;
944;SDS011;459;48.676;9.034;2023-06-10T06:21:55;7.30;;;6.60;;
944;SDS011;459;48.676;9.034;2023-06-10T06:24:20;6.87;;;6.17;;
944;SDS011;459;48.676;9.034;2023-06-10T06:26:45;6.77;;;6.27;;
944;SDS011;459;48.676;9.034;2023-06-10T06:29:11;6.17;;;5.70;;
944;SDS011;459;48.676;9.034;2023-06-10T06:31:36;7.90;;;7.10;;
944;SDS011;459;48.676;9.034;2023-06-10T06:34:01;6.47;;;5.97;;
944;SDS011;459;48.676;9.034;2023-06-10T06:36:27;7.57;;;6.97;;
944;SDS011;459;48.676;9.034;2023-06-10T06:38:52;7.23;;;6.63;;
944;SDS011;459;48.676;9.034;2023-06-10T06:41:18;7.50;;;6.60;;
944;SDS011;459;48.676;9.034;2023-06-10T06:43:44;6.40;;;5.80;;
944;SDS011;459;48.676;9.034;2023-06-10T06:46:09;9.47;;;6.83;;
944;SDS011;459;48.676;9.034;2023-06-10T06:48:35;7.00;;;6.30;;
944;SDS011;459;48.676;9.034;2023-06-10T06:51:03;7.20;;;5.73;;
944;SDS011;459;48.676;9.034;2023-06-10T06:53:30;6.63;;;6.07;;
944;SDS011;459;48.676;9.034;2023-06-10T06:55:56;6.40;;;5.80;;
944;SDS011;459;48.676;9.034;2023-06-10T06:58:21;5.90;;;5.40;;
944;SDS011;459;48.676;9.034;2023-06-10T07:00:47;6.23;;;5.67;;
944;SDS011;459;48.676;9.034;2023-06-10T07:03:12;7.40;;;6.70;;
944;SDS011;459;48.676;9.034;2023-06-10T07:05:37;9.10;;;7.37;;
944;SDS011;459;48.676;9.034;2023-06-10T07:08:03;7.30;;;6.60;;
944;SDS011;459;48.676;9.034;2023-06-10T07:10:29;6.33;;;5.83;;
944;SDS011;459;48.676;9.034;2023-06-10T07:12:54;7.27;;;6.37;;
944;SDS011;459;48.676;9.034;2023-06-10T07:15:19;6.87;;;6.23;;
944;SDS011;459;48.676;9.034;2023-06-10T07:17:44;8.03;;;7.23;;
944;SDS011;459;48.676;9.034;2023-06-10T07:20:10;6.90;;;6.30;;
944;SDS011;459;48.676;9.034;2023-06-10T07:22:35;7.13;;;6.53;;
944;SDS011;459;48.676;9.034;2023-06-10T07:25:00;6.63;;;6.13;;
944;SDS011;459;48.676;9.034;2023-06-10T07:27:26;6.10;;;5.60;;
944;SDS011;459;48.676;9.034;2023-06-10T07:29:51;6.30;;;5.80;;
944;SDS011;459;48.676;9.034;2023-06-10T07:32:16;6.13;;;5.53;;
944;SDS011;459;48.676;9.034;2023-06-10T07:34:42;6.97;;;6.37;;
944;SDS011;459;48.676;9.034;2023-06-10T07:37:07;5.10;;;4.70;;
944;SDS011;459;48.676;9.034;2023-06-10T07:39:32;6.80;;;6.17;;
944;SDS011;459;48.676;9.034;2023-06-10T07:41:57;6.20;;;5.50;;
944;SDS011;459;48.676;9.034;2023-06-10T07:44:23;6.43;;;5.83;;
944;SDS011;459;48.676;9.034;2023-06-10T07:46:48;6.17;;;5.67;;
944;SDS011;459;48.676;9.034;2023-06-10T07:49:13;5.77;;;5.27;;
944;SDS011;459;48.676;9.034;2023-06-10T07:51:39;5.63;;;5.10;;
944;SDS011;459;48.676;9.034;2023-06-10T07:54:04;5.50;;;5.00;;
944;SDS011;459;48.676;9.034;2023-06-10T07:56:29;5.67;;;5.17;;
944;SDS011;459;48.676;9.034;2023-06-10T07:58:55;5.70;;;5.20;;
944;SDS011;459;48.676;9.034;2023-06-10T08:01:20;5.67;;;5.07;;
944;SDS011;459;48.676;9.034;2023-06-10T08:03:45;6.07;;;5.57;;
944;SDS011;459;48.676;9.034;2023-06-10T08:06:10;5.80;;;5.30;;
944;SDS011;459;48.676;9.034;2023-06-10T08:08:36;5.27;;;4.77;;
944;SDS011;459;48.676;9.034;2023-06-10T08:11:06;5.63;;;5.10;;
944;SDS011;459;48.676;9.034;2023-06-10T08:13:32;6.13;;;5.63;;
944;SDS011;459;48.676;9.034;2023-06-10T08:15:57;6.10;;;5.50;;
944;SDS011;459;48.676;9.034;2023-06-10T08:18:22;5.93;;;5.27;;
944;SDS011;459;48.676;9.034;2023-06-10T08:20:47;6.10;;;5.60;;
944;SDS011;459;48.676;9.034;2023-06-10T08:23:13;6.27;;;5.67;;
944;SDS011;459;48.676;9.034;2023-06-10T08:25:38;6.00;;;5.40;;
944;SDS011;459;48.676;9.034;2023-06-10T08:28:04;5.83;;;5.33;;
944;SDS011;459;48.676;9.034;2023-06-10T08:30:29;6.40;;;5.90;;
944;SDS011;459;48.676;9.034;2023-06-10T08:32:55;7.00;;;5.53;;
944;SDS011;459;48.676;9.034;2023-06-10T08:35:20;7.00;;;5.60;;
944;SDS011;459;48.676;9.034;2023-06-10T08:37:46;5.50;;;5.00;;
944;SDS011;459;48.676;9.034;2023-06-10T08:40:11;6.43;;;5.90;;
944;SDS011;459;48.676;9.034;2023-06-10T08:45:03;5.90;;;5.40;;
944;SDS011;459;48.676;9.034;2023-06-10T08:47:29;6.97;;;6.37;;
944;SDS011;459;48.676;9.034;2023-06-10T08:49:56;6.57;;;6.07;;
944;SDS011;459;48.676;9.034;2023-06-10T08:52:26;6.00;;;5.40;;
944;SDS011;459;48.676;9.034;2023-06-10T08:57:19;6.20;;;5.70;;
944;SDS011;459;48.676;9.034;2023-06-10T08:59:46;6.70;;;6.10;;
944;SDS011;459;48.676;9.034;2023-06-10T09:02:11;6.50;;;5.90;;
944;SDS011;459;48.676;9.034;2023-06-10T09:04:38;6.00;;;5.50;;
944;SDS011;459;48.676;9.034;2023-06-10T09:07:04;5.57;;;5.10;;
944;SDS011;459;48.676;9.034;2023-06-10T09:09:29;5.20;;;4.80;;
944;SDS011;459;48.676;9.034;2023-06-10T09:11:58;5.50;;;5.03;;
944;SDS011;459;48.676;9.034;2023-06-10T09:14:23;5.47;;;5.00;;
944;SDS011;459;48.676;9.034;2023-06-10T09:16:49;5.63;;;5.13;;
944;SDS011;459;48.676;9.034;2023-06-10T09:19:15;6.23;;;5.20;;
944;SDS011;459;48.676;9.034;2023-06-10T09:21:41;5.57;;;5.10;;
944;SDS011;459;48.676;9.034;2023-06-10T09:24:06;6.00;;;5.50;;
944;SDS011;459;48.676;9.034;2023-06-10T09:26:31;5.00;;;4.60;;
944;SDS011;459;48.676;9.034;2023-06-10T09:29:03;5.10;;;4.60;;
944;SDS011;459;48.676;9.034;2023-06-10T09:31:29;5.60;;;5.17;;
944;SDS011;459;48.676;9.034;2023-06-10T09:33:54;6.00;;;5.50;;
944;SDS011;459;48.676;9.034;2023-06-10T09:36:23;5.83;;;5.33;;
944;SDS011;459;48.676;9.034;2023-06-10T09:38:49;5.57;;;5.17;;
944;SDS011;459;48.676;9.034;2023-06-10T09:41:14;6.60;;;5.43;;
944;SDS011;459;48.676;9.034;2023-06-10T09:43:41;5.70;;;5.20;;
944;SDS011;459;48.676;9.034;2023-06-10T09:46:07;7.10;;;5.83;;
944;SDS011;459;48.676;9.034;2023-06-10T09:48:35;6.40;;;5.87;;
944;SDS011;459;48.676;9.034;2023-06-10T09:51:08;5.70;;;4.90;;
944;SDS011;459;48.676;9.034;2023-06-10T09:53:33;5.97;;;5.57;;
944;SDS011;459;48.676;9.034;2023-06-10T09:55:59;5.73;;;5.30;;
944;SDS011;459;48.676;9.034;2023-06-10T09:58:34;5.73;;;5.23;;
944;SDS011;459;48.676;9.034;2023-06-10T10:00:59;6.27;;;5.77;;
944;SDS011;459;48.676;9.034;2023-06-10T10:03:27;5.80;;;5.17;;
944;SDS011;459;48.676;9.034;2023-06-10T10:05:59;5.83;;;5.33;;
944;SDS011;459;48.676;9.034;2023-06-10T10:08:25;6.83;;;6.23;;
944;SDS011;459;48.676;9.034;2023-06-10T10:10:50;6.03;;;5.57;;
944;SDS011;459;48.676;9.034;2023-06-10T10:13:16;6.37;;;5.77;;
944;SDS011;459;48.676;9.034;2023-06-10T10:15:41;5.73;;;5.23;;
944;SDS011;459;48.676;9.034;2023-06-10T10:18:08;4.97;;;4.57;;
944;SDS011;459;48.676;9.034;2023-06-10T10:20:34;6.83;;;5.27;;
944;SDS011;459;48.676;9.034;2023-06-10T10:23:02;5.57;;;5.17;;
944;SDS011;459;48.676;9.034;2023-06-10T10:25:29;5.17;;;4.77;;
944;SDS011;459;48.676;9.034;2023-06-10T10:27:57;5.33;;;4.83;;
944;SDS011;459;48.676;9.034;2023-06-10T10:30:25;5.33;;;4.93;;
944;SDS011;459;48.676;9.034;2023-06-10T10:32:52;6.30;;;4.90;;
944;SDS011;459;48.676;9.034;2023-06-10T10:35:21;5.33;;;4.87;;
944;SDS011;459;48.676;9.034;2023-06-10T10:37:48;7.40;;;5.17;;
944;SDS011;459;48.676;9.034;2023-06-10T10:40:14;5.40;;;4.90;;
944;SDS011;459;48.676;9.034;2023-06-10T10:42:40;5.33;;;4.93;;
944;SDS011;459;48.676;9.034;2023-06-10T10:45:06;5.60;;;4.67;;
944;SDS011;459;48.676;9.034;2023-06-10T10:47:33;5.17;;;4.77;;
944;SDS011;459;48.676;9.034;2023-06-10T10:50:01;4.80;;;4.50;;
944;SDS011;459;48.676;9.034;2023-06-10T10:52:27;5.30;;;4.90;;
944;SDS011;459;48.676;9.034;2023-06-10T10:54:53;6.00;;;5.37;;
944;SDS011;459;48.676;9.034;2023-06-10T10:57:23;6.50;;;4.73;;
944;SDS011;459;48.676;9.034;2023-06-10T10:59:52;5.03;;;4.63;;
944;SDS011;459;48.676;9.034;2023-06-10T11:02:37;5.63;;;5.17;;
944;SDS011;459;48.676;9.034;2023-06-10T11:05:07;5.40;;;4.90;;
944;SDS011;459;48.676;9.034;2023-06-10T11:07:34;4.90;;;4.50;;
944;SDS011;459;48.676;9.034;2023-06-10T11:12:25;6.43;;;5.77;;
944;SDS011;459;48.676;9.034;2023-06-10T11:14:54;4.93;;;4.43;;
944;SDS011;459;48.676;9.034;2023-06-10T11:17:20;5.50;;;5.00;;
944;SDS011;459;48.676;9.034;2023-06-10T11:19:46;6.00;;;5.43;;
944;SDS011;459;48.676;9.034;2023-06-10T11:22:15;5.03;;;4.53;;
944;SDS011;459;48.676;9.034;2023-06-10T11:24:41;5.27;;;4.83;;
944;SDS011;459;48.676;9.034;2023-06-10T11:27:16;4.80;;;4.40;;
944;SDS011;459;48.676;9.034;2023-06-10T11:30:33;6.20;;;4.67;;
944;SDS011;459;48.676;9.034;2023-06-10T11:32:30;5.17;;;4.77;;
944;SDS011;459;48.676;9.034;2023-06-10T11:34:56;5.10;;;4.70;;
944;SDS011;459;48.676;9.034;2023-06-10T11:37:22;5.00;;;4.60;;
944;SDS011;459;48.676;9.034;2023-06-10T11:39:52;5.50;;;5.10;;
944;SDS011;459;48.676;9.034;2023-06-10T11:42:19;4.93;;;4.53;;
944;SDS011;459;48.676;9.034;2023-06-10T11:44:48;5.77;;;5.37;;
944;SDS011;459;48.676;9.034;2023-06-10T11:47:13;5.03;;;4.60;;
944;SDS011;459;48.676;9.034;2023-06-10T11:49:38;4.40;;;4.00;;
944;SDS011;459;48.676;9.034;2023-06-10T11:52:04;4.97;;;4.57;;
944;SDS011;459;48.676;9.034;2023-06-10T11:54:31;5.30;;;4.90;;
944;SDS011;459;48.676;9.034;2023-06-10T11:56:59;5.20;;;4.80;;
944;SDS011;459;48.676;9.034;2023-06-10T11:59:28;4.87;;;4.53;;
944;SDS011;459;48.676;9.034;2023-06-10T12:01:53;5.03;;;4.63;;
944;SDS011;459;48.676;9.034;2023-06-10T12:04:19;4.93;;;4.53;;
944;SDS011;459;48.676;9.034;2023-06-10T12:06:48;5.00;;;4.60;;
944;SDS011;459;48.676;9.034;2023-06-10T12:09:23;4.63;;;4.33;;
944;SDS011;459;48.676;9.034;2023-06-10T12:11:53;4.80;;;4.40;;
944;SDS011;459;48.676;9.034;2023-06-10T12:19:56;4.63;;;4.33;;
944;SDS011;459;48.676;9.034;2023-06-10T12:22:22;5.40;;;4.07;;
944;SDS011;459;48.676;9.034;2023-06-10T12:24:59;4.40;;;4.07;;
944;SDS011;459;48.676;9.034;2023-06-10T12:27:29;4.53;;;4.13;;
944;SDS011;459;48.676;9.034;2023-06-10T12:29:55;6.47;;;5.87;;
944;SDS011;459;48.676;9.034;2023-06-10T12:32:20;6.80;;;5.63;;
944;SDS011;459;48.676;9.034;2023-06-10T12:34:54;5.30;;;4.90;;
944;SDS011;459;48.676;9.034;2023-06-10T12:37:26;5.93;;;5.00;;
944;SDS011;459;48.676;9.034;2023-06-10T12:39:52;4.90;;;4.53;;
944;SDS011;459;48.676;9.034;2023-06-10T12:42:21;5.13;;;4.80;;
944;SDS011;459;48.676;9.034;2023-06-10T12:44:47;5.50;;;5.10;;
944;SDS011;459;48.676;9.034;2023-06-10T12:47:17;5.67;;;5.27;;
944;SDS011;459;48.676;9.034;2023-06-10T12:49:43;5.20;;;4.80;;
944;SDS011;459;48.676;9.034;2023-06-10T12:52:08;5.27;;;4.87;;
944;SDS011;459;48.676;9.034;2023-06-10T12:54:33;6.00;;;5.53;;
944;SDS011;459;48.676;9.034;2023-06-10T12:56:59;5.10;;;4.70;;
944;SDS011;459;48.676;9.034;2023-06-10T12:59:24;5.30;;;4.87;;
944;SDS011;459;48.676;9.034;2023-06-10T13:01:51;6.87;;;4.50;;
944;SDS011;459;48.676;9.034;2023-06-10T13:04:16;5.27;;;4.87;;
944;SDS011;459;48.676;9.034;2023-06-10T13:06:43;4.90;;;4.40;;
944;SDS011;459;48.676;9.034;2023-06-10T13:09:08;4.73;;;4.33;;
944;SDS011;459;48.676;9.034;2023-06-10T13:11:34;5.03;;;4.63;;
944;SDS011;459;48.676;9.034;2023-06-10T13:14:00;5.67;;;5.20;;
944;SDS011;459;48.676;9.034;2023-06-10T13:16:25;4.83;;;4.53;;
944;SDS011;459;48.676;9.034;2023-06-10T13:18:52;5.77;;;5.27;;
944;SDS011;459;48.676;9.034;2023-06-10T13:21:17;5.27;;;4.87;;
944;SDS011;459;48.676;9.034;2023-06-10T13:23:43;5.23;;;4.83;;
944;SDS011;459;48.676;9.034;2023-06-10T13:26:09;5.60;;;5.20;;
944;SDS011;459;48.676;9.034;2023-06-10T13:28:34;5.53;;;5.13;;
944;SDS011;459;48.676;9.034;2023-06-10T13:31:00;5.90;;;5.30;;
944;SDS011;459;48.676;9.034;2023-06-10T13:33:25;5.80;;;5.30;;
944;SDS011;459;48.676;9.034;2023-06-10T13:35:50;5.77;;;5.27;;
944;SDS011;459;48.676;9.034;2023-06-10T13:38:15;5.10;;;4.70;;
944;SDS011;459;48.676;9.034;2023-06-10T13:40:41;5.00;;;4.60;;
944;SDS011;459;48.676;9.034;2023-06-10T13:43:06;4.40;;;4.10;;
944;SDS011;459;48.676;9.034;2023-06-10T13:45:31;5.10;;;4.70;;
944;SDS011;459;48.676;9.034;2023-06-10T13:47:56;4.70;;;4.23;;
944;SDS011;459;48.676;9.034;2023-06-10T13:50:21;5.33;;;4.83;;
944;SDS011;459;48.676;9.034;2023-06-10T13:52:47;4.40;;;4.10;;
944;SDS011;459;48.676;9.034;2023-06-10T13:55:12;4.73;;;4.30;;
944;SDS011;459;48.676;9.034;2023-06-10T13:57:37;5.80;;;5.40;;
944;SDS011;459;48.676;9.034;2023-06-10T14:00:03;5.30;;;4.90;;
944;SDS011;459;48.676;9.034;2023-06-10T14:02:28;4.70;;;4.40;;
944;SDS011;459;48.676;9.034;2023-06-10T14:04:53;4.80;;;4.40;;
944;SDS011;459;48.676;9.034;2023-06-10T14:07:19;5.40;;;5.00;;
944;SDS011;459;48.676;9.034;2023-06-10T14:09:44;4.73;;;4.33;;
944;SDS011;459;48.676;9.034;2023-06-10T14:12:10;5.47;;;5.07;;
944;SDS011;459;48.676;9.034;2023-06-10T14:14:37;5.40;;;5.00;;
944;SDS011;459;48.676;9.034;2023-06-10T14:17:02;5.47;;;5.07;;
944;SDS011;459;48.676;9.034;2023-06-10T14:19:30;5.40;;;5.00;;
944;SDS011;459;48.676;9.034;2023-06-10T14:21:55;5.10;;;4.70;;
944;SDS011;459;48.676;9.034;2023-06-10T14:24:20;5.30;;;4.90;;
944;SDS011;459;48.676;9.034;2023-06-10T14:26:46;6.00;;;5.60;;
944;SDS011;459;48.676;9.034;2023-06-10T14:29:11;4.67;;;4.27;;
944;SDS011;459;48.676;9.034;2023-06-10T14:31:39;5.20;;;4.80;;
944;SDS011;459;48.676;9.034;2023-06-10T14:34:04;5.63;;;5.13;;
944;SDS011;459;48.676;9.034;2023-06-10T14:36:32;11.13;;;6.10;;
944;SDS011;459;48.676;9.034;2023-06-10T14:38:58;5.27;;;4.87;;
944;SDS011;459;48.676;9.034;2023-06-10T14:41:23;13.27;;;9.83;;
944;SDS011;459;48.676;9.034;2023-06-10T14:43:48;5.90;;;5.10;;
944;SDS011;459;48.676;9.034;2023-06-10T14:46:13;4.63;;;4.33;;
944;SDS011;459;48.676;9.034;2023-06-10T14:48:38;5.43;;;3.80;;
944;SDS011;459;48.676;9.034;2023-06-10T14:51:04;4.83;;;4.43;;
944;SDS011;459;48.676;9.034;2023-06-10T14:53:29;5.27;;;4.87;;
944;SDS011;459;48.676;9.034;2023-06-10T14:55:54;4.93;;;4.57;;
944;SDS011;459;48.676;9.034;2023-06-10T14:58:19;5.30;;;4.90;;
944;SDS011;459;48.676;9.034;2023-06-10T15:00:44;5.67;;;5.10;;
944;SDS011;459;48.676;9.034;2023-06-10T15:03:10;4.40;;;4.10;;
944;SDS011;459;48.676;9.034;2023-06-10T15:05:35;4.50;;;4.20;;
944;SDS011;459;48.676;9.034;2023-06-10T15:08:02;4.70;;;4.40;;
944;SDS011;459;48.676;9.034;2023-06-10T15:10:27;4.80;;;4.50;;
944;SDS011;459;48.676;9.034;2023-06-10T15:12:52;5.27;;;4.83;;
944;SDS011;459;48.676;9.034;2023-06-10T15:15:21;7.07;;;4.00;;
944;SDS011;459;48.676;9.034;2023-06-10T15:17:46;5.17;;;4.67;;
944;SDS011;459;48.676;9.034;2023-06-10T15:20:11;5.23;;;4.83;;
944;SDS011;459;48.676;9.034;2023-06-10T15:22:36;5.20;;;4.80;;
944;SDS011;459;48.676;9.034;2023-06-10T15:25:02;5.37;;;4.93;;
944;SDS011;459;48.676;9.034;2023-06-10T15:27:27;4.70;;;4.30;;
944;SDS011;459;48.676;9.034;2023-06-10T15:29:52;5.33;;;4.90;;
944;SDS011;459;48.676;9.034;2023-06-10T15:32:17;5.50;;;5.10;;
944;SDS011;459;48.676;9.034;2023-06-10T15:34:43;5.03;;;4.63;;
944;SDS011;459;48.676;9.034;2023-06-10T15:37:08;5.50;;;5.10;;
944;SDS011;459;48.676;9.034;2023-06-10T15:39:33;4.87;;;4.47;;
944;SDS011;459;48.676;9.034;2023-06-10T15:41:58;5.20;;;4.80;;
944;SDS011;459;48.676;9.034;2023-06-10T15:44:23;5.00;;;4.60;;
944;SDS011;459;48.676;9.034;2023-06-10T15:46:49;5.70;;;5.27;;
944;SDS011;459;48.676;9.034;2023-06-10T15:49:15;4.57;;;4.27;;
944;SDS011;459;48.676;9.034;2023-06-10T15:51:40;5.43;;;4.90;;